sensor_id;sensor_type;location;lat;lon;timestamp;P1;durP1;ratioP1;P2;durP2;ratioP2
73650;SDS011;61944;52.538;6.108;2022-07-11T00:01:00;5.63;;;2.60;;
73650;SDS011;61944;52.538;6.108;2022-07-11T00:03:25;2.77;;;2.10;;
73650;SDS011;61944;52.538;6.108;2022-07-11T00:05:50;2.95;;;2.08;;
73650;SDS011;61944;52.538;6.108;2022-07-11T00:08:15;3.07;;;1.80;;
73650;SDS011;61944;52.538;6.108;2022-07-11T00:10:40;4.88;;;2.17;;
73650;SDS011;61944;52.538;6.108;2022-07-11T00:13:06;3.65;;;2.30;;
73650;SDS011;61944;52.538;6.108;2022-07-11T00:15:31;3.65;;;1.88;;
73650;SDS011;61944;52.538;6.108;2022-07-11T00:17:56;5.90;;;2.63;;
73650;SDS011;61944;52.538;6.108;2022-07-11T00:20:22;2.35;;;2.10;;
73650;SDS011;61944;52.538;6.108;2022-07-11T00:22:47;4.05;;;2.03;;
73650;SDS011;61944;52.538;6.108;2022-07-11T00:25:12;5.40;;;2.23;;
73650;SDS011;61944;52.538;6.108;2022-07-11T00:27:37;6.05;;;2.30;;
73650;SDS011;61944;52.538;6.108;2022-07-11T00:30:03;5.72;;;2.38;;
73650;SDS011;61944;52.538;6.108;2022-07-11T00:32:28;4.82;;;2.63;;
73650;SDS011;61944;52.538;6.108;2022-07-11T00:34:53;2.83;;;2.53;;
73650;SDS011;61944;52.538;6.108;2022-07-11T00:37:19;4.13;;;2.50;;
73650;SDS011;61944;52.538;6.108;2022-07-11T00:39:44;7.45;;;2.95;;
73650;SDS011;61944;52.538;6.108;2022-07-11T00:42:09;4.22;;;2.58;;
73650;SDS011;61944;52.538;6.108;2022-07-11T00:44:35;6.50;;;2.65;;
73650;SDS011;61944;52.538;6.108;2022-07-11T00:47:01;6.53;;;2.53;;
73650;SDS011;61944;52.538;6.108;2022-07-11T00:49:26;5.85;;;2.35;;
73650;SDS011;61944;52.538;6.108;2022-07-11T00:51:51;7.00;;;2.75;;
73650;SDS011;61944;52.538;6.108;2022-07-11T00:54:17;5.40;;;2.78;;
73650;SDS011;61944;52.538;6.108;2022-07-11T00:56:43;4.25;;;2.72;;
73650;SDS011;61944;52.538;6.108;2022-07-11T00:59:09;5.85;;;2.65;;
73650;SDS011;61944;52.538;6.108;2022-07-11T01:01:34;5.15;;;3.40;;
73650;SDS011;61944;52.538;6.108;2022-07-11T01:04:02;5.00;;;3.40;;
73650;SDS011;61944;52.538;6.108;2022-07-11T01:06:28;5.50;;;2.80;;
73650;SDS011;61944;52.538;6.108;2022-07-11T01:08:53;5.65;;;3.28;;
73650;SDS011;61944;52.538;6.108;2022-07-11T01:11:18;5.22;;;2.83;;
73650;SDS011;61944;52.538;6.108;2022-07-11T01:13:44;8.65;;;3.10;;
73650;SDS011;61944;52.538;6.108;2022-07-11T01:16:14;5.97;;;3.03;;
73650;SDS011;61944;52.538;6.108;2022-07-11T01:19:12;7.43;;;2.80;;
73650;SDS011;61944;52.538;6.108;2022-07-11T01:21:32;4.85;;;3.30;;
73650;SDS011;61944;52.538;6.108;2022-07-11T01:24:00;5.28;;;2.85;;
73650;SDS011;61944;52.538;6.108;2022-07-11T01:26:27;6.38;;;3.15;;
73650;SDS011;61944;52.538;6.108;2022-07-11T01:28:52;6.28;;;2.65;;
73650;SDS011;61944;52.538;6.108;2022-07-11T01:31:18;5.57;;;3.25;;
73650;SDS011;61944;52.538;6.108;2022-07-11T01:33:44;6.45;;;3.38;;
73650;SDS011;61944;52.538;6.108;2022-07-11T01:36:09;7.97;;;3.53;;
73650;SDS011;61944;52.538;6.108;2022-07-11T01:38:34;4.25;;;3.08;;
73650;SDS011;61944;52.538;6.108;2022-07-11T01:41:01;5.78;;;2.92;;
73650;SDS011;61944;52.538;6.108;2022-07-11T01:43:26;5.68;;;3.03;;
73650;SDS011;61944;52.538;6.108;2022-07-11T01:45:52;6.25;;;4.05;;
73650;SDS011;61944;52.538;6.108;2022-07-11T01:48:17;8.07;;;3.53;;
73650;SDS011;61944;52.538;6.108;2022-07-11T01:50:43;5.82;;;3.63;;
73650;SDS011;61944;52.538;6.108;2022-07-11T01:53:08;6.72;;;3.83;;
73650;SDS011;61944;52.538;6.108;2022-07-11T01:55:33;9.65;;;4.47;;
73650;SDS011;61944;52.538;6.108;2022-07-11T01:57:58;7.27;;;3.53;;
73650;SDS011;61944;52.538;6.108;2022-07-11T02:00:24;5.35;;;3.78;;
73650;SDS011;61944;52.538;6.108;2022-07-11T02:02:49;8.27;;;3.53;;
73650;SDS011;61944;52.538;6.108;2022-07-11T02:05:14;4.95;;;3.25;;
73650;SDS011;61944;52.538;6.108;2022-07-11T02:07:39;6.30;;;3.97;;
73650;SDS011;61944;52.538;6.108;2022-07-11T02:10:23;12.25;;;3.42;;
73650;SDS011;61944;52.538;6.108;2022-07-11T02:12:54;5.22;;;3.13;;
73650;SDS011;61944;52.538;6.108;2022-07-11T02:15:19;6.53;;;3.70;;
73650;SDS011;61944;52.538;6.108;2022-07-11T02:17:44;9.38;;;3.60;;
73650;SDS011;61944;52.538;6.108;2022-07-11T02:20:09;6.45;;;3.70;;
73650;SDS011;61944;52.538;6.108;2022-07-11T02:22:35;10.95;;;4.78;;
73650;SDS011;61944;52.538;6.108;2022-07-11T02:25:00;6.32;;;3.60;;
73650;SDS011;61944;52.538;6.108;2022-07-11T02:27:25;9.27;;;3.63;;
73650;SDS011;61944;52.538;6.108;2022-07-11T02:29:50;9.18;;;3.70;;
73650;SDS011;61944;52.538;6.108;2022-07-11T02:32:16;7.05;;;3.58;;
73650;SDS011;61944;52.538;6.108;2022-07-11T02:34:41;7.88;;;4.05;;
73650;SDS011;61944;52.538;6.108;2022-07-11T02:37:09;7.57;;;4.20;;
73650;SDS011;61944;52.538;6.108;2022-07-11T02:39:35;9.65;;;4.43;;
73650;SDS011;61944;52.538;6.108;2022-07-11T02:42:00;7.53;;;5.03;;
73650;SDS011;61944;52.538;6.108;2022-07-11T02:44:26;6.50;;;3.80;;
73650;SDS011;61944;52.538;6.108;2022-07-11T02:46:51;7.85;;;4.00;;
73650;SDS011;61944;52.538;6.108;2022-07-11T02:49:16;8.25;;;4.35;;
73650;SDS011;61944;52.538;6.108;2022-07-11T02:51:41;9.35;;;4.28;;
73650;SDS011;61944;52.538;6.108;2022-07-11T02:54:07;5.63;;;3.87;;
73650;SDS011;61944;52.538;6.108;2022-07-11T02:56:32;5.80;;;3.83;;
73650;SDS011;61944;52.538;6.108;2022-07-11T02:58:58;7.78;;;3.85;;
73650;SDS011;61944;52.538;6.108;2022-07-11T03:01:23;8.98;;;4.75;;
73650;SDS011;61944;52.538;6.108;2022-07-11T03:03:48;9.02;;;4.05;;
73650;SDS011;61944;52.538;6.108;2022-07-11T03:06:13;9.23;;;5.10;;
73650;SDS011;61944;52.538;6.108;2022-07-11T03:08:38;9.50;;;3.05;;
73650;SDS011;61944;52.538;6.108;2022-07-11T03:11:04;6.05;;;3.58;;
73650;SDS011;61944;52.538;6.108;2022-07-11T03:13:30;4.85;;;2.58;;
73650;SDS011;61944;52.538;6.108;2022-07-11T03:15:55;5.30;;;3.53;;
73650;SDS011;61944;52.538;6.108;2022-07-11T03:18:21;4.28;;;2.92;;
73650;SDS011;61944;52.538;6.108;2022-07-11T03:20:46;6.07;;;2.85;;
73650;SDS011;61944;52.538;6.108;2022-07-11T03:23:11;8.20;;;2.88;;
73650;SDS011;61944;52.538;6.108;2022-07-11T03:25:36;5.30;;;2.83;;
73650;SDS011;61944;52.538;6.108;2022-07-11T03:28:02;9.13;;;3.28;;
73650;SDS011;61944;52.538;6.108;2022-07-11T03:30:27;6.15;;;4.07;;
73650;SDS011;61944;52.538;6.108;2022-07-11T03:32:52;4.65;;;3.20;;
73650;SDS011;61944;52.538;6.108;2022-07-11T03:35:17;4.05;;;2.95;;
73650;SDS011;61944;52.538;6.108;2022-07-11T03:38:01;5.72;;;3.35;;
73650;SDS011;61944;52.538;6.108;2022-07-11T03:40:27;6.00;;;3.30;;
73650;SDS011;61944;52.538;6.108;2022-07-11T03:42:53;5.20;;;2.65;;
73650;SDS011;61944;52.538;6.108;2022-07-11T03:45:18;6.68;;;4.00;;
73650;SDS011;61944;52.538;6.108;2022-07-11T03:47:43;7.65;;;3.15;;
73650;SDS011;61944;52.538;6.108;2022-07-11T03:50:08;7.63;;;3.03;;
73650;SDS011;61944;52.538;6.108;2022-07-11T03:52:34;8.38;;;3.17;;
73650;SDS011;61944;52.538;6.108;2022-07-11T03:54:59;9.20;;;3.28;;
73650;SDS011;61944;52.538;6.108;2022-07-11T03:57:24;8.75;;;3.08;;
73650;SDS011;61944;52.538;6.108;2022-07-11T03:59:52;4.20;;;2.90;;
73650;SDS011;61944;52.538;6.108;2022-07-11T04:02:20;6.97;;;3.75;;
73650;SDS011;61944;52.538;6.108;2022-07-11T04:04:46;8.63;;;3.85;;
73650;SDS011;61944;52.538;6.108;2022-07-11T04:07:12;7.53;;;3.45;;
73650;SDS011;61944;52.538;6.108;2022-07-11T04:09:37;5.80;;;3.60;;
73650;SDS011;61944;52.538;6.108;2022-07-11T04:12:03;7.88;;;4.03;;
73650;SDS011;61944;52.538;6.108;2022-07-11T04:14:28;7.70;;;4.03;;
73650;SDS011;61944;52.538;6.108;2022-07-11T04:16:53;9.43;;;4.10;;
73650;SDS011;61944;52.538;6.108;2022-07-11T04:19:18;9.43;;;3.70;;
73650;SDS011;61944;52.538;6.108;2022-07-11T04:21:43;7.72;;;3.88;;
73650;SDS011;61944;52.538;6.108;2022-07-11T04:24:09;4.50;;;3.08;;
73650;SDS011;61944;52.538;6.108;2022-07-11T04:26:34;4.28;;;3.08;;
73650;SDS011;61944;52.538;6.108;2022-07-11T04:28:59;6.47;;;3.05;;
73650;SDS011;61944;52.538;6.108;2022-07-11T04:31:24;5.13;;;2.92;;
73650;SDS011;61944;52.538;6.108;2022-07-11T04:33:51;5.75;;;3.10;;
73650;SDS011;61944;52.538;6.108;2022-07-11T04:36:16;8.55;;;3.55;;
73650;SDS011;61944;52.538;6.108;2022-07-11T04:38:41;6.60;;;2.58;;
73650;SDS011;61944;52.538;6.108;2022-07-11T04:41:09;5.90;;;2.75;;
73650;SDS011;61944;52.538;6.108;2022-07-11T04:43:34;4.43;;;2.55;;
73650;SDS011;61944;52.538;6.108;2022-07-11T04:46:01;4.93;;;3.30;;
73650;SDS011;61944;52.538;6.108;2022-07-11T04:48:30;5.85;;;3.33;;
73650;SDS011;61944;52.538;6.108;2022-07-11T04:50:56;3.67;;;2.50;;
73650;SDS011;61944;52.538;6.108;2022-07-11T04:53:21;4.82;;;2.85;;
73650;SDS011;61944;52.538;6.108;2022-07-11T04:55:46;3.88;;;2.50;;
73650;SDS011;61944;52.538;6.108;2022-07-11T04:58:11;5.78;;;2.70;;
73650;SDS011;61944;52.538;6.108;2022-07-11T05:00:37;2.92;;;2.38;;
73650;SDS011;61944;52.538;6.108;2022-07-11T05:03:02;4.60;;;2.40;;
73650;SDS011;61944;52.538;6.108;2022-07-11T05:05:27;6.03;;;2.72;;
73650;SDS011;61944;52.538;6.108;2022-07-11T05:07:53;4.88;;;3.00;;
73650;SDS011;61944;52.538;6.108;2022-07-11T05:10:18;4.97;;;2.58;;
73650;SDS011;61944;52.538;6.108;2022-07-11T05:12:43;5.13;;;2.70;;
73650;SDS011;61944;52.538;6.108;2022-07-11T05:15:09;5.47;;;2.50;;
73650;SDS011;61944;52.538;6.108;2022-07-11T05:17:34;4.15;;;2.65;;
73650;SDS011;61944;52.538;6.108;2022-07-11T05:20:01;4.00;;;2.90;;
73650;SDS011;61944;52.538;6.108;2022-07-11T05:22:26;4.70;;;2.55;;
73650;SDS011;61944;52.538;6.108;2022-07-11T05:24:51;4.88;;;2.30;;
73650;SDS011;61944;52.538;6.108;2022-07-11T05:27:17;5.80;;;2.13;;
73650;SDS011;61944;52.538;6.108;2022-07-11T05:29:42;2.13;;;1.63;;
73650;SDS011;61944;52.538;6.108;2022-07-11T05:32:07;2.67;;;1.98;;
73650;SDS011;61944;52.538;6.108;2022-07-11T05:34:36;3.40;;;1.73;;
73650;SDS011;61944;52.538;6.108;2022-07-11T05:37:01;6.72;;;3.58;;
73650;SDS011;61944;52.538;6.108;2022-07-11T05:39:26;3.55;;;1.90;;
73650;SDS011;61944;52.538;6.108;2022-07-11T05:41:52;4.10;;;1.27;;
73650;SDS011;61944;52.538;6.108;2022-07-11T05:44:17;2.47;;;1.40;;
73650;SDS011;61944;52.538;6.108;2022-07-11T05:46:44;2.85;;;1.10;;
73650;SDS011;61944;52.538;6.108;2022-07-11T05:49:09;2.38;;;1.08;;
73650;SDS011;61944;52.538;6.108;2022-07-11T05:51:34;2.08;;;0.95;;
73650;SDS011;61944;52.538;6.108;2022-07-11T05:53:59;1.48;;;1.10;;
73650;SDS011;61944;52.538;6.108;2022-07-11T05:56:27;1.27;;;1.10;;
73650;SDS011;61944;52.538;6.108;2022-07-11T05:58:53;1.73;;;1.00;;
73650;SDS011;61944;52.538;6.108;2022-07-11T06:01:18;1.38;;;1.10;;
73650;SDS011;61944;52.538;6.108;2022-07-11T06:03:44;1.40;;;1.10;;
73650;SDS011;61944;52.538;6.108;2022-07-11T06:06:09;0.80;;;0.70;;
73650;SDS011;61944;52.538;6.108;2022-07-11T06:08:36;12.90;;;1.83;;
73650;SDS011;61944;52.538;6.108;2022-07-11T06:11:14;2.45;;;1.10;;
73650;SDS011;61944;52.538;6.108;2022-07-11T06:13:40;3.10;;;1.15;;
73650;SDS011;61944;52.538;6.108;2022-07-11T06:16:06;2.88;;;1.10;;
73650;SDS011;61944;52.538;6.108;2022-07-11T06:18:32;3.35;;;1.33;;
73650;SDS011;61944;52.538;6.108;2022-07-11T06:20:57;1.38;;;1.00;;
73650;SDS011;61944;52.538;6.108;2022-07-11T06:23:22;2.75;;;0.90;;
73650;SDS011;61944;52.538;6.108;2022-07-11T06:25:49;1.50;;;1.20;;
73650;SDS011;61944;52.538;6.108;2022-07-11T06:28:14;2.05;;;1.15;;
73650;SDS011;61944;52.538;6.108;2022-07-11T06:30:39;2.72;;;0.80;;
73650;SDS011;61944;52.538;6.108;2022-07-11T06:33:05;1.75;;;1.10;;
73650;SDS011;61944;52.538;6.108;2022-07-11T06:35:30;1.90;;;1.20;;
73650;SDS011;61944;52.538;6.108;2022-07-11T06:37:55;4.05;;;1.00;;
73650;SDS011;61944;52.538;6.108;2022-07-11T06:40:21;2.35;;;0.93;;
73650;SDS011;61944;52.538;6.108;2022-07-11T06:42:46;2.05;;;0.80;;
73650;SDS011;61944;52.538;6.108;2022-07-11T06:45:12;2.45;;;0.88;;
73650;SDS011;61944;52.538;6.108;2022-07-11T06:47:38;3.38;;;1.17;;
73650;SDS011;61944;52.538;6.108;2022-07-11T06:50:03;2.00;;;1.05;;
73650;SDS011;61944;52.538;6.108;2022-07-11T06:52:29;3.08;;;1.70;;
73650;SDS011;61944;52.538;6.108;2022-07-11T06:54:54;2.95;;;1.23;;
73650;SDS011;61944;52.538;6.108;2022-07-11T06:57:19;1.77;;;1.02;;
73650;SDS011;61944;52.538;6.108;2022-07-11T06:59:44;3.13;;;1.35;;
73650;SDS011;61944;52.538;6.108;2022-07-11T07:02:09;4.75;;;1.30;;
73650;SDS011;61944;52.538;6.108;2022-07-11T07:04:35;2.20;;;1.05;;
73650;SDS011;61944;52.538;6.108;2022-07-11T07:07:00;1.83;;;1.13;;
73650;SDS011;61944;52.538;6.108;2022-07-11T07:09:27;2.08;;;1.00;;
73650;SDS011;61944;52.538;6.108;2022-07-11T07:11:52;1.25;;;1.08;;
73650;SDS011;61944;52.538;6.108;2022-07-11T07:14:17;0.80;;;0.80;;
73650;SDS011;61944;52.538;6.108;2022-07-11T07:16:42;1.55;;;1.17;;
73650;SDS011;61944;52.538;6.108;2022-07-11T07:19:08;1.02;;;0.93;;
73650;SDS011;61944;52.538;6.108;2022-07-11T07:21:33;1.30;;;0.95;;
73650;SDS011;61944;52.538;6.108;2022-07-11T07:23:58;1.33;;;1.00;;
73650;SDS011;61944;52.538;6.108;2022-07-11T07:26:23;3.67;;;1.00;;
73650;SDS011;61944;52.538;6.108;2022-07-11T07:28:49;2.30;;;1.00;;
73650;SDS011;61944;52.538;6.108;2022-07-11T07:31:14;1.45;;;0.95;;
73650;SDS011;61944;52.538;6.108;2022-07-11T07:33:40;2.17;;;1.15;;
73650;SDS011;61944;52.538;6.108;2022-07-11T07:36:05;1.40;;;0.88;;
73650;SDS011;61944;52.538;6.108;2022-07-11T07:38:30;2.38;;;0.80;;
73650;SDS011;61944;52.538;6.108;2022-07-11T07:40:55;4.65;;;0.80;;
73650;SDS011;61944;52.538;6.108;2022-07-11T07:43:21;2.40;;;0.85;;
73650;SDS011;61944;52.538;6.108;2022-07-11T07:45:46;1.52;;;0.85;;
73650;SDS011;61944;52.538;6.108;2022-07-11T07:48:12;2.92;;;0.77;;
73650;SDS011;61944;52.538;6.108;2022-07-11T07:50:37;0.95;;;0.60;;
73650;SDS011;61944;52.538;6.108;2022-07-11T07:53:02;0.63;;;0.57;;
73650;SDS011;61944;52.538;6.108;2022-07-11T07:55:27;1.30;;;1.20;;
73650;SDS011;61944;52.538;6.108;2022-07-11T07:57:53;0.85;;;0.70;;
73650;SDS011;61944;52.538;6.108;2022-07-11T08:00:18;1.08;;;0.93;;
73650;SDS011;61944;52.538;6.108;2022-07-11T08:03:03;0.30;;;0.30;;
73650;SDS011;61944;52.538;6.108;2022-07-11T08:05:31;1.13;;;0.68;;
73650;SDS011;61944;52.538;6.108;2022-07-11T08:07:56;1.33;;;0.65;;
73650;SDS011;61944;52.538;6.108;2022-07-11T08:10:21;2.20;;;0.60;;
73650;SDS011;61944;52.538;6.108;2022-07-11T08:12:47;1.20;;;0.55;;
73650;SDS011;61944;52.538;6.108;2022-07-11T08:15:12;1.00;;;0.50;;
73650;SDS011;61944;52.538;6.108;2022-07-11T08:17:37;1.02;;;0.68;;
73650;SDS011;61944;52.538;6.108;2022-07-11T08:20:05;0.75;;;0.50;;
73650;SDS011;61944;52.538;6.108;2022-07-11T08:22:31;0.57;;;0.50;;
73650;SDS011;61944;52.538;6.108;2022-07-11T08:24:56;0.50;;;0.35;;
73650;SDS011;61944;52.538;6.108;2022-07-11T08:27:21;1.20;;;0.47;;
73650;SDS011;61944;52.538;6.108;2022-07-11T08:29:46;0.50;;;0.40;;
73650;SDS011;61944;52.538;6.108;2022-07-11T08:32:12;0.40;;;0.40;;
73650;SDS011;61944;52.538;6.108;2022-07-11T08:34:37;0.40;;;0.40;;
73650;SDS011;61944;52.538;6.108;2022-07-11T08:37:03;0.95;;;0.55;;
73650;SDS011;61944;52.538;6.108;2022-07-11T08:39:28;0.60;;;0.43;;
73650;SDS011;61944;52.538;6.108;2022-07-11T08:41:54;1.50;;;0.60;;
73650;SDS011;61944;52.538;6.108;2022-07-11T08:44:19;0.63;;;0.47;;
73650;SDS011;61944;52.538;6.108;2022-07-11T08:46:44;0.75;;;0.50;;
73650;SDS011;61944;52.538;6.108;2022-07-11T08:49:11;3.28;;;1.50;;
73650;SDS011;61944;52.538;6.108;2022-07-11T08:51:37;1.80;;;0.60;;
73650;SDS011;61944;52.538;6.108;2022-07-11T08:54:02;0.50;;;0.40;;
73650;SDS011;61944;52.538;6.108;2022-07-11T08:56:28;1.00;;;0.50;;
73650;SDS011;61944;52.538;6.108;2022-07-11T08:58:54;0.93;;;0.50;;
73650;SDS011;61944;52.538;6.108;2022-07-11T09:01:20;0.65;;;0.40;;
73650;SDS011;61944;52.538;6.108;2022-07-11T09:03:50;0.80;;;0.60;;
73650;SDS011;61944;52.538;6.108;2022-07-11T09:06:16;0.70;;;0.60;;
73650;SDS011;61944;52.538;6.108;2022-07-11T09:08:41;1.20;;;0.70;;
73650;SDS011;61944;52.538;6.108;2022-07-11T09:11:06;1.25;;;0.90;;
73650;SDS011;61944;52.538;6.108;2022-07-11T09:13:32;1.20;;;0.60;;
73650;SDS011;61944;52.538;6.108;2022-07-11T09:16:02;0.90;;;0.65;;
73650;SDS011;61944;52.538;6.108;2022-07-11T09:18:34;1.90;;;0.70;;
73650;SDS011;61944;52.538;6.108;2022-07-11T09:21:02;3.45;;;0.77;;
73650;SDS011;61944;52.538;6.108;2022-07-11T09:23:46;2.25;;;0.82;;
73650;SDS011;61944;52.538;6.108;2022-07-11T09:26:34;6.30;;;1.02;;
73650;SDS011;61944;52.538;6.108;2022-07-11T09:29:04;1.38;;;0.55;;
73650;SDS011;61944;52.538;6.108;2022-07-11T09:31:31;0.88;;;0.75;;
73650;SDS011;61944;52.538;6.108;2022-07-11T09:34:15;1.77;;;0.98;;
73650;SDS011;61944;52.538;6.108;2022-07-11T09:36:42;1.50;;;0.70;;
73650;SDS011;61944;52.538;6.108;2022-07-11T09:39:09;2.17;;;0.80;;
73650;SDS011;61944;52.538;6.108;2022-07-11T09:41:35;2.45;;;0.60;;
73650;SDS011;61944;52.538;6.108;2022-07-11T09:46:32;0.60;;;0.45;;
73650;SDS011;61944;52.538;6.108;2022-07-11T09:48:59;0.93;;;0.60;;
73650;SDS011;61944;52.538;6.108;2022-07-11T09:51:24;0.75;;;0.50;;
73650;SDS011;61944;52.538;6.108;2022-07-11T09:53:54;0.40;;;0.40;;
73650;SDS011;61944;52.538;6.108;2022-07-11T09:56:23;0.52;;;0.50;;
73650;SDS011;61944;52.538;6.108;2022-07-11T09:58:50;1.30;;;0.50;;
73650;SDS011;61944;52.538;6.108;2022-07-11T10:01:22;0.45;;;0.43;;
73650;SDS011;61944;52.538;6.108;2022-07-11T10:03:48;0.50;;;0.43;;
73650;SDS011;61944;52.538;6.108;2022-07-11T10:06:13;1.55;;;0.50;;
73650;SDS011;61944;52.538;6.108;2022-07-11T10:08:39;1.95;;;0.75;;
73650;SDS011;61944;52.538;6.108;2022-07-11T10:11:04;0.60;;;0.57;;
73650;SDS011;61944;52.538;6.108;2022-07-11T10:13:29;1.52;;;0.50;;
73650;SDS011;61944;52.538;6.108;2022-07-11T10:15:54;0.57;;;0.50;;
73650;SDS011;61944;52.538;6.108;2022-07-11T10:18:39;0.50;;;0.50;;
73650;SDS011;61944;52.538;6.108;2022-07-11T10:21:14;0.77;;;0.60;;
73650;SDS011;61944;52.538;6.108;2022-07-11T10:28:41;0.93;;;0.65;;
73650;SDS011;61944;52.538;6.108;2022-07-11T10:31:22;1.00;;;0.50;;
73650;SDS011;61944;52.538;6.108;2022-07-11T10:36:29;2.17;;;0.65;;
73650;SDS011;61944;52.538;6.108;2022-07-11T10:41:38;0.73;;;0.60;;
73650;SDS011;61944;52.538;6.108;2022-07-11T10:44:06;0.70;;;0.50;;
73650;SDS011;61944;52.538;6.108;2022-07-11T10:46:31;0.50;;;0.50;;
73650;SDS011;61944;52.538;6.108;2022-07-11T10:54:24;0.60;;;0.60;;
73650;SDS011;61944;52.538;6.108;2022-07-11T10:57:03;1.17;;;0.77;;
73650;SDS011;61944;52.538;6.108;2022-07-11T10:59:31;2.38;;;0.75;;
73650;SDS011;61944;52.538;6.108;2022-07-11T11:09:52;1.15;;;0.60;;
73650;SDS011;61944;52.538;6.108;2022-07-11T11:12:17;0.75;;;0.75;;
73650;SDS011;61944;52.538;6.108;2022-07-11T11:14:46;1.33;;;1.05;;
73650;SDS011;61944;52.538;6.108;2022-07-11T11:17:53;1.90;;;0.80;;
73650;SDS011;61944;52.538;6.108;2022-07-11T11:20:00;1.67;;;0.65;;
73650;SDS011;61944;52.538;6.108;2022-07-11T11:22:26;2.03;;;1.08;;
73650;SDS011;61944;52.538;6.108;2022-07-11T11:24:54;1.95;;;0.70;;
73650;SDS011;61944;52.538;6.108;2022-07-11T11:27:26;1.05;;;0.80;;
73650;SDS011;61944;52.538;6.108;2022-07-11T11:29:55;2.33;;;0.82;;
73650;SDS011;61944;52.538;6.108;2022-07-11T11:32:21;2.95;;;0.88;;
73650;SDS011;61944;52.538;6.108;2022-07-11T11:34:46;0.98;;;0.82;;
73650;SDS011;61944;52.538;6.108;2022-07-11T11:37:12;1.55;;;0.90;;
73650;SDS011;61944;52.538;6.108;2022-07-11T11:39:39;1.70;;;0.85;;
73650;SDS011;61944;52.538;6.108;2022-07-11T11:42:15;1.73;;;1.00;;
73650;SDS011;61944;52.538;6.108;2022-07-11T11:47:47;2.55;;;1.25;;
73650;SDS011;61944;52.538;6.108;2022-07-11T11:50:13;0.95;;;0.75;;
73650;SDS011;61944;52.538;6.108;2022-07-11T11:52:40;1.25;;;1.15;;
73650;SDS011;61944;52.538;6.108;2022-07-11T11:55:06;2.45;;;1.00;;
73650;SDS011;61944;52.538;6.108;2022-07-11T11:57:32;2.35;;;1.08;;
73650;SDS011;61944;52.538;6.108;2022-07-11T11:59:57;1.75;;;1.10;;
73650;SDS011;61944;52.538;6.108;2022-07-11T12:02:27;1.35;;;1.00;;
73650;SDS011;61944;52.538;6.108;2022-07-11T12:04:52;1.30;;;1.20;;
73650;SDS011;61944;52.538;6.108;2022-07-11T12:07:21;1.42;;;1.10;;
73650;SDS011;61944;52.538;6.108;2022-07-11T12:09:49;1.33;;;1.00;;
73650;SDS011;61944;52.538;6.108;2022-07-11T12:12:17;1.10;;;0.88;;
73650;SDS011;61944;52.538;6.108;2022-07-11T12:15:01;1.63;;;1.00;;
73650;SDS011;61944;52.538;6.108;2022-07-11T12:17:27;2.40;;;1.17;;
73650;SDS011;61944;52.538;6.108;2022-07-11T12:19:54;1.05;;;0.95;;
73650;SDS011;61944;52.538;6.108;2022-07-11T12:22:19;1.95;;;1.33;;
73650;SDS011;61944;52.538;6.108;2022-07-11T12:24:48;1.20;;;1.10;;
73650;SDS011;61944;52.538;6.108;2022-07-11T12:27:22;1.67;;;1.33;;
73650;SDS011;61944;52.538;6.108;2022-07-11T12:29:47;2.55;;;1.30;;
73650;SDS011;61944;52.538;6.108;2022-07-11T12:32:16;1.17;;;0.93;;
73650;SDS011;61944;52.538;6.108;2022-07-11T12:34:43;2.25;;;1.17;;
73650;SDS011;61944;52.538;6.108;2022-07-11T12:39:39;1.10;;;1.00;;
73650;SDS011;61944;52.538;6.108;2022-07-11T12:45:12;1.10;;;0.90;;
73650;SDS011;61944;52.538;6.108;2022-07-11T12:47:41;3.40;;;2.40;;
73650;SDS011;61944;52.538;6.108;2022-07-11T12:50:10;2.85;;;1.05;;
73650;SDS011;61944;52.538;6.108;2022-07-11T12:52:35;1.73;;;1.17;;
73650;SDS011;61944;52.538;6.108;2022-07-11T12:55:01;1.90;;;1.00;;
73650;SDS011;61944;52.538;6.108;2022-07-11T12:57:26;1.38;;;0.80;;
73650;SDS011;61944;52.538;6.108;2022-07-11T12:59:51;0.80;;;0.73;;
73650;SDS011;61944;52.538;6.108;2022-07-11T13:02:20;1.20;;;0.80;;
73650;SDS011;61944;52.538;6.108;2022-07-11T13:04:51;1.45;;;0.80;;
73650;SDS011;61944;52.538;6.108;2022-07-11T13:07:32;1.02;;;0.85;;
73650;SDS011;61944;52.538;6.108;2022-07-11T13:10:21;1.48;;;1.10;;
73650;SDS011;61944;52.538;6.108;2022-07-11T13:12:47;1.85;;;0.70;;
73650;SDS011;61944;52.538;6.108;2022-07-11T13:15:13;2.05;;;1.30;;
73650;SDS011;61944;52.538;6.108;2022-07-11T13:20:06;0.75;;;0.73;;
73650;SDS011;61944;52.538;6.108;2022-07-11T13:22:32;0.50;;;0.50;;
73650;SDS011;61944;52.538;6.108;2022-07-11T13:24:57;1.20;;;0.63;;
73650;SDS011;61944;52.538;6.108;2022-07-11T13:27:23;2.65;;;0.73;;
73650;SDS011;61944;52.538;6.108;2022-07-11T13:29:51;1.10;;;0.80;;
73650;SDS011;61944;52.538;6.108;2022-07-11T13:32:17;1.42;;;1.23;;
73650;SDS011;61944;52.538;6.108;2022-07-11T13:34:42;0.80;;;0.70;;
73650;SDS011;61944;52.538;6.108;2022-07-11T13:37:07;1.25;;;1.15;;
73650;SDS011;61944;52.538;6.108;2022-07-11T13:39:32;1.35;;;1.02;;
73650;SDS011;61944;52.538;6.108;2022-07-11T13:41:58;1.98;;;0.85;;
73650;SDS011;61944;52.538;6.108;2022-07-11T13:44:23;1.63;;;0.80;;
73650;SDS011;61944;52.538;6.108;2022-07-11T13:46:48;1.95;;;1.15;;
73650;SDS011;61944;52.538;6.108;2022-07-11T13:49:13;1.15;;;0.82;;
73650;SDS011;61944;52.538;6.108;2022-07-11T13:51:39;1.02;;;0.80;;
73650;SDS011;61944;52.538;6.108;2022-07-11T13:54:04;2.60;;;0.77;;
73650;SDS011;61944;52.538;6.108;2022-07-11T13:56:30;1.23;;;0.60;;
73650;SDS011;61944;52.538;6.108;2022-07-11T13:58:55;3.00;;;1.02;;
73650;SDS011;61944;52.538;6.108;2022-07-11T14:01:20;1.00;;;0.70;;
73650;SDS011;61944;52.538;6.108;2022-07-11T14:03:45;1.30;;;0.98;;
73650;SDS011;61944;52.538;6.108;2022-07-11T14:06:11;1.58;;;0.98;;
73650;SDS011;61944;52.538;6.108;2022-07-11T14:08:36;2.03;;;1.08;;
73650;SDS011;61944;52.538;6.108;2022-07-11T14:11:02;2.17;;;1.00;;
73650;SDS011;61944;52.538;6.108;2022-07-11T14:13:27;1.83;;;0.90;;
73650;SDS011;61944;52.538;6.108;2022-07-11T14:15:52;2.28;;;0.90;;
73650;SDS011;61944;52.538;6.108;2022-07-11T14:18:18;1.92;;;0.82;;
73650;SDS011;61944;52.538;6.108;2022-07-11T14:20:43;1.08;;;0.80;;
73650;SDS011;61944;52.538;6.108;2022-07-11T14:23:08;1.98;;;1.02;;
73650;SDS011;61944;52.538;6.108;2022-07-11T14:25:33;3.03;;;1.05;;
73650;SDS011;61944;52.538;6.108;2022-07-11T14:27:59;2.20;;;1.10;;
73650;SDS011;61944;52.538;6.108;2022-07-11T14:30:24;1.10;;;0.80;;
73650;SDS011;61944;52.538;6.108;2022-07-11T14:32:53;1.35;;;1.05;;
73650;SDS011;61944;52.538;6.108;2022-07-11T14:35:19;3.53;;;1.00;;
73650;SDS011;61944;52.538;6.108;2022-07-11T14:37:45;3.50;;;1.15;;
73650;SDS011;61944;52.538;6.108;2022-07-11T14:40:11;3.78;;;1.20;;
73650;SDS011;61944;52.538;6.108;2022-07-11T14:42:36;2.10;;;0.95;;
73650;SDS011;61944;52.538;6.108;2022-07-11T14:45:01;1.60;;;0.70;;
73650;SDS011;61944;52.538;6.108;2022-07-11T14:47:26;3.33;;;1.17;;
73650;SDS011;61944;52.538;6.108;2022-07-11T14:49:52;1.52;;;1.15;;
73650;SDS011;61944;52.538;6.108;2022-07-11T14:52:17;2.55;;;1.40;;
73650;SDS011;61944;52.538;6.108;2022-07-11T14:54:43;1.48;;;1.38;;
73650;SDS011;61944;52.538;6.108;2022-07-11T14:57:09;3.00;;;1.40;;
73650;SDS011;61944;52.538;6.108;2022-07-11T14:59:35;1.25;;;1.15;;
73650;SDS011;61944;52.538;6.108;2022-07-11T15:02:01;1.50;;;1.13;;
73650;SDS011;61944;52.538;6.108;2022-07-11T15:04:26;1.30;;;1.10;;
73650;SDS011;61944;52.538;6.108;2022-07-11T15:06:51;1.58;;;1.40;;
73650;SDS011;61944;52.538;6.108;2022-07-11T15:09:35;3.05;;;1.25;;
73650;SDS011;61944;52.538;6.108;2022-07-11T15:12:19;2.30;;;1.13;;
73650;SDS011;61944;52.538;6.108;2022-07-11T15:14:53;1.98;;;1.02;;
73650;SDS011;61944;52.538;6.108;2022-07-11T15:17:18;2.20;;;1.00;;
73650;SDS011;61944;52.538;6.108;2022-07-11T15:19:44;2.75;;;0.90;;
73650;SDS011;61944;52.538;6.108;2022-07-11T15:22:12;1.63;;;1.50;;